Norfolk, Virginia
Traffic Map
Current Weather Conditions
Norfolk, Virginia
Clear
Clear
15°
Feels Like: 15°
Wind Chill: 15° Ceiling: Unl
Heat Index: 15° Visibility: 10mi
Dew Point: Wind: 10mph
Humidity: 58% Direction: 350° (N)
Pressure: 29.98in Gusts: 22mph
Raw Report DataKORF 241351Z AUTO 35009G19KT 10SM CLR 15/07 A2998 RMK AO2 SLP151 T01500067 TSNO
Traffic Incident Summary
Active as of:
Severity:
Category:
InformationThere was an issue retrieving the traffic information for this location. Please try a different location or try again shortly.
Advertisements
Track Severe Weather on mobile